Time;durP1;ratioP1;P1;durP2;ratioP2;P2;SDS_P1;SDS_P2;PMS_P1;PMS_P2;Temp;Humidity;BMP_temperature;BMP_pressure;BME280_temperature;BME280_humidity;BME280_pressure;Samples;Min_cycle;Max_cycle;Signal;HPM_P1;HPM_P2
2022/04/29 00:03:12;;;;;;;;;;;21.40;32.90;;;;;;8333050;28;19925;-51
2022/04/29 00:07:13;;;;;;;;;;;21.40;33.00;;;;;;8333755;28;19913;-49
2022/04/29 00:11:14;;;;;;;;;;;21.30;33.00;;;;;;8333520;28;20020;-47
2022/04/29 00:15:15;;;;;;;;;;;21.30;32.90;;;;;;8332886;28;19928;-45
2022/04/29 00:19:16;;;;;;;;;;;21.30;33.00;;;;;;8333066;28;19925;-45
2022/04/29 00:23:17;;;;;;;;;;;21.30;33.00;;;;;;8333005;28;19964;-46
2022/04/29 00:27:17;;;;;;;;;;;21.30;33.00;;;;;;8332722;28;19913;-45
2022/04/29 00:31:18;;;;;;;;;;;21.30;33.00;;;;;;8332739;28;19917;-46
2022/04/29 00:35:18;;;;;;;;;;;21.30;33.10;;;;;;8332625;28;19918;-47
2022/04/29 00:39:19;;;;;;;;;;;21.30;33.10;;;;;;8331984;28;19921;-50
2022/04/29 00:43:19;;;;;;;;;;;21.30;33.10;;;;;;8332482;28;19929;-49
2022/04/29 00:47:20;;;;;;;;;;;21.20;33.00;;;;;;8397098;28;19916;-50
2022/04/29 00:51:21;;;;;;;;;;;21.20;33.10;;;;;;8317013;28;19924;-49
2022/04/29 00:55:22;;;;;;;;;;;21.20;33.10;;;;;;8331999;28;20003;-48
2022/04/29 00:59:34;;;;;;;;;;;21.20;33.10;;;;;;8332121;28;20306;-46
2022/04/29 01:03:36;;;;;;;;;;;21.20;33.10;;;;;;8332055;28;20396;-46
2022/04/29 01:07:38;;;;;;;;;;;21.20;33.10;;;;;;8331441;28;19920;-47
2022/04/29 01:11:38;;;;;;;;;;;21.20;33.10;;;;;;8330616;28;19917;-47
2022/04/29 01:15:39;;;;;;;;;;;21.10;33.10;;;;;;8331467;28;19921;-50
2022/04/29 01:19:40;;;;;;;;;;;21.10;33.10;;;;;;8331599;28;19917;-48
2022/04/29 01:23:42;;;;;;;;;;;21.10;33.10;;;;;;8330814;28;19917;-50
2022/04/29 01:27:44;;;;;;;;;;;21.10;33.10;;;;;;8331654;28;19914;-48
2022/04/29 01:31:46;;;;;;;;;;;21.10;33.10;;;;;;8331003;28;19928;-45
2022/04/29 01:35:46;;;;;;;;;;;21.10;33.10;;;;;;8330525;28;20278;-45
2022/04/29 01:39:47;;;;;;;;;;;21.10;33.10;;;;;;8330848;28;19917;-46
2022/04/29 01:43:47;;;;;;;;;;;21.10;33.20;;;;;;8330899;28;19976;-46
2022/04/29 01:47:47;;;;;;;;;;;21.10;33.10;;;;;;8330848;28;19945;-44
2022/04/29 01:51:48;;;;;;;;;;;21.00;33.10;;;;;;8330904;28;20301;-47
2022/04/29 01:55:49;;;;;;;;;;;21.00;33.10;;;;;;8330740;28;19917;-47
2022/04/29 01:59:49;;;;;;;;;;;21.00;33.10;;;;;;8330278;28;19963;-49
2022/04/29 02:03:50;;;;;;;;;;;21.00;33.10;;;;;;8330371;28;20358;-45
2022/04/29 02:07:50;;;;;;;;;;;21.00;33.20;;;;;;8330605;28;20027;-49
2022/04/29 02:12:06;;;;;;;;;;;21.00;33.20;;;;;;8329757;28;19928;-47
2022/04/29 02:16:06;;;;;;;;;;;21.00;33.20;;;;;;8330042;28;19918;-46
2022/04/29 02:20:07;;;;;;;;;;;21.00;33.20;;;;;;8335889;28;20286;-45
2022/04/29 02:24:08;;;;;;;;;;;20.90;33.10;;;;;;8336430;28;19963;-47
2022/04/29 02:28:08;;;;;;;;;;;20.90;33.10;;;;;;8337208;28;19917;-50
2022/04/29 02:32:09;;;;;;;;;;;20.90;33.10;;;;;;8336706;28;19917;-47
2022/04/29 02:36:09;;;;;;;;;;;20.90;33.20;;;;;;8336083;28;19917;-48
2022/04/29 02:40:10;;;;;;;;;;;20.90;33.20;;;;;;8336673;28;19921;-45
2022/04/29 02:44:10;;;;;;;;;;;20.90;33.20;;;;;;8336392;28;20368;-45
2022/04/29 02:48:11;;;;;;;;;;;20.90;33.20;;;;;;8335952;28;20389;-49
2022/04/29 02:52:12;;;;;;;;;;;20.90;33.20;;;;;;8336388;28;19987;-50
2022/04/29 02:56:13;;;;;;;;;;;20.90;33.20;;;;;;8336154;28;19948;-44
2022/04/29 03:00:14;;;;;;;;;;;20.80;33.20;;;;;;8335365;28;19925;-45
2022/04/29 03:04:14;;;;;;;;;;;20.80;33.20;;;;;;8335815;28;19932;-46
2022/04/29 03:08:15;;;;;;;;;;;20.80;33.20;;;;;;8335695;28;19913;-45
2022/04/29 03:12:15;;;;;;;;;;;20.80;33.20;;;;;;8334887;28;20000;-46
2022/04/29 03:16:15;;;;;;;;;;;20.80;33.20;;;;;;8335295;28;20266;-46
2022/04/29 03:20:16;;;;;;;;;;;20.80;33.20;;;;;;8335127;28;19921;-45
2022/04/29 03:24:16;;;;;;;;;;;20.80;33.20;;;;;;8334487;28;19917;-46
2022/04/29 03:28:17;;;;;;;;;;;20.80;33.30;;;;;;8334731;28;19913;-51
2022/04/29 03:32:18;;;;;;;;;;;20.80;33.30;;;;;;8334105;28;20401;-50
2022/04/29 03:36:18;;;;;;;;;;;20.80;33.30;;;;;;8334169;28;20306;-51
2022/04/29 03:40:22;;;;;;;;;;;20.70;33.20;;;;;;8334494;28;19957;-50
2022/04/29 03:44:23;;;;;;;;;;;20.80;33.30;;;;;;8334523;28;19979;-50
2022/04/29 03:48:23;;;;;;;;;;;20.70;33.20;;;;;;8334152;28;19920;-49
2022/04/29 03:52:24;;;;;;;;;;;20.70;33.20;;;;;;8334329;28;19921;-47
2022/04/29 03:56:25;;;;;;;;;;;20.70;33.20;;;;;;8334139;28;19921;-49
2022/04/29 04:00:26;;;;;;;;;;;20.70;33.30;;;;;;8333597;28;19925;-48
2022/04/29 04:04:27;;;;;;;;;;;20.70;33.20;;;;;;8333709;28;19974;-50
2022/04/29 04:08:27;;;;;;;;;;;20.70;33.20;;;;;;8361996;28;20354;-49
2022/04/29 04:12:47;;;;;;;;;;;20.70;33.30;;;;;;8366028;28;19978;-50
2022/04/29 04:16:47;;;;;;;;;;;20.70;33.30;;;;;;8366534;28;19924;-50
2022/04/29 04:20:48;;;;;;;;;;;20.80;33.30;;;;;;8365683;28;20282;-50
2022/04/29 04:24:49;;;;;;;;;;;20.80;33.30;;;;;;8366226;28;19923;-49
2022/04/29 04:28:49;;;;;;;;;;;20.90;33.30;;;;;;8366216;28;19913;-47
2022/04/29 04:32:50;;;;;;;;;;;20.90;33.20;;;;;;8365443;28;19917;-48
2022/04/29 04:36:53;;;;;;;;;;;21.00;33.20;;;;;;8334061;28;20356;-48
2022/04/29 04:40:53;;;;;;;;;;;21.00;33.20;;;;;;8332504;28;19932;-46
2022/04/29 04:44:54;;;;;;;;;;;21.00;33.20;;;;;;8332234;28;20007;-46
2022/04/29 04:48:55;;;;;;;;;;;21.00;33.20;;;;;;8333071;28;19949;-47
2022/04/29 04:52:55;;;;;;;;;;;21.00;33.20;;;;;;8332547;28;19917;-46
2022/04/29 04:56:56;;;;;;;;;;;21.10;33.20;;;;;;8331682;28;19968;-49
2022/04/29 05:00:56;;;;;;;;;;;21.00;33.70;;;;;;8331891;28;19925;-48
2022/04/29 05:04:57;;;;;;;;;;;21.10;33.20;;;;;;8332324;28;20320;-46
2022/04/29 05:08:58;;;;;;;;;;;21.10;33.20;;;;;;8331441;28;19920;-50
2022/04/29 05:12:58;;;;;;;;;;;21.10;33.10;;;;;;8331501;28;20271;-47
2022/04/29 05:16:59;;;;;;;;;;;21.10;33.10;;;;;;8331632;28;19917;-47
2022/04/29 05:21:02;;;;;;;;;;;21.10;33.00;;;;;;8330866;28;19926;-50
2022/04/29 05:25:04;;;;;;;;;;;21.10;33.00;;;;;;8331420;28;20298;-47
2022/04/29 05:29:05;;;;;;;;;;;21.10;33.00;;;;;;8331459;28;20373;-46
2022/04/29 05:33:06;;;;;;;;;;;21.10;33.00;;;;;;8330692;28;19917;-47
2022/04/29 05:37:07;;;;;;;;;;;21.00;33.00;;;;;;8330911;28;19920;-47
2022/04/29 05:45:26;;;;;;;;;;;21.00;33.00;;;;;;8330701;28;19924;-47
2022/04/29 05:49:26;;;;;;;;;;;21.10;33.00;;;;;;8330855;28;20411;-44
2022/04/29 05:53:27;;;;;;;;;;;21.00;33.00;;;;;;8330060;28;19975;-45
2022/04/29 05:57:27;;;;;;;;;;;21.00;33.00;;;;;;8330040;28;19971;-45
2022/04/29 06:01:28;;;;;;;;;;;21.00;33.00;;;;;;8330472;28;19929;-46
2022/04/29 06:05:28;;;;;;;;;;;21.00;33.00;;;;;;8330878;28;19928;-47
2022/04/29 06:09:28;;;;;;;;;;;21.00;33.00;;;;;;8329871;28;19951;-52
2022/04/29 06:13:29;;;;;;;;;;;21.00;33.00;;;;;;8330395;28;19959;-47
2022/04/29 06:17:29;;;;;;;;;;;21.00;33.00;;;;;;8330038;28;19917;-49
2022/04/29 06:21:30;;;;;;;;;;;21.00;33.00;;;;;;8329395;28;19940;-49
2022/04/29 06:25:30;;;;;;;;;;;21.00;32.90;;;;;;8330009;28;19924;-47
2022/04/29 06:29:31;;;;;;;;;;;21.00;32.90;;;;;;8331902;28;20381;-48
2022/04/29 06:33:32;;;;;;;;;;;21.00;32.80;;;;;;8352929;28;20404;-49
2022/04/29 06:37:32;;;;;;;;;;;21.00;32.90;;;;;;8362854;28;19923;-48
2022/04/29 06:41:34;;;;;;;;;;;21.00;32.90;;;;;;8362071;28;19932;-46
2022/04/29 06:45:35;;;;;;;;;;;21.00;32.90;;;;;;8362981;28;19944;-45
2022/04/29 06:49:36;;;;;;;;;;;21.10;32.90;;;;;;8363047;28;19924;-45
2022/04/29 06:53:39;;;;;;;;;;;21.10;32.80;;;;;;8362117;28;19982;-50
2022/04/29 06:57:39;;;;;;;;;;;21.20;32.80;;;;;;8362390;28;19921;-47
2022/04/29 07:01:39;;;;;;;;;;;21.20;32.60;;;;;;8354018;28;19972;-47
2022/04/29 07:05:41;;;;;;;;;;;21.30;32.50;;;;;;8333410;28;19921;-46
2022/04/29 07:09:43;;;;;;;;;;;21.40;32.30;;;;;;8335818;28;19913;-47
2022/04/29 07:13:43;;;;;;;;;;;21.50;32.20;;;;;;8335430;28;19917;-47
2022/04/29 07:17:44;;;;;;;;;;;21.60;32.20;;;;;;8334884;28;19935;-45
2022/04/29 07:21:45;;;;;;;;;;;21.60;32.00;;;;;;8335020;28;19944;-47
2022/04/29 07:25:45;;;;;;;;;;;21.60;32.10;;;;;;8335234;28;20052;-45
2022/04/29 07:29:46;;;;;;;;;;;21.50;32.10;;;;;;8334716;28;19920;-49
2022/04/29 07:33:46;;;;;;;;;;;21.50;32.20;;;;;;8334753;28;19925;-46
2022/04/29 07:42:06;;;;;;;;;;;21.50;32.30;;;;;;8335311;28;20444;-46
2022/04/29 07:46:10;;;;;;;;;;;21.50;32.40;;;;;;8334704;28;19917;-45
2022/04/29 07:50:11;;;;;;;;;;;21.40;32.40;;;;;;8334727;28;19963;-48
2022/04/29 07:54:12;;;;;;;;;;;21.40;32.50;;;;;;8333797;28;19917;-47
2022/04/29 07:58:13;;;;;;;;;;;21.40;32.50;;;;;;8334293;28;20429;-47
2022/04/29 08:02:13;;;;;;;;;;;21.40;32.60;;;;;;8333912;28;19925;-50
2022/04/29 08:06:14;;;;;;;;;;;21.40;32.60;;;;;;8333740;28;19921;-46
2022/04/29 08:10:14;;;;;;;;;;;21.40;32.60;;;;;;8334107;28;19917;-50
2022/04/29 08:14:15;;;;;;;;;;;21.40;32.60;;;;;;8333932;28;20332;-46
2022/04/29 08:18:16;;;;;;;;;;;21.40;32.70;;;;;;8332580;28;20428;-48
2022/04/29 08:22:17;;;;;;;;;;;21.40;32.70;;;;;;8333195;28;19922;-46
2022/04/29 08:26:17;;;;;;;;;;;21.40;32.70;;;;;;8315476;28;20290;-46
2022/04/29 08:30:18;;;;;;;;;;;21.40;32.80;;;;;;8332942;28;19917;-49
2022/04/29 08:34:18;;;;;;;;;;;21.40;32.80;;;;;;8332897;28;20380;-51
2022/04/29 08:38:19;;;;;;;;;;;21.40;32.80;;;;;;8332913;28;20358;-47
2022/04/29 08:42:19;;;;;;;;;;;21.40;32.70;;;;;;8332216;28;20008;-49
2022/04/29 08:46:21;;;;;;;;;;;21.50;32.80;;;;;;8332929;28;19924;-49
2022/04/29 08:50:21;;;;;;;;;;;21.50;32.80;;;;;;8332817;28;19919;-50
2022/04/29 08:58:42;;;;;;;;;;;21.50;32.80;;;;;;8334909;28;19940;-50
2022/04/29 09:02:44;;;;;;;;;;;21.50;32.70;;;;;;8331641;28;20011;-50
2022/04/29 09:06:48;;;;;;;;;;;21.50;32.80;;;;;;8331714;28;19967;-45
2022/04/29 09:10:50;;;;;;;;;;;21.50;32.80;;;;;;8332262;28;19920;-50
2022/04/29 09:15:08;;;;;;;;;;;21.50;32.80;;;;;;8331357;28;20420;-46
2022/04/29 09:19:09;;;;;;;;;;;21.50;32.70;;;;;;8331542;28;19924;-50
2022/04/29 09:23:12;;;;;;;;;;;21.60;32.80;;;;;;8331483;28;19932;-48
2022/04/29 09:27:13;;;;;;;;;;;21.60;32.80;;;;;;8330123;28;19917;-51
2022/04/29 09:31:14;;;;;;;;;;;21.60;32.80;;;;;;8331179;28;19914;-47
2022/04/29 09:35:16;;;;;;;;;;;21.60;32.80;;;;;;8331424;28;19917;-48
2022/04/29 09:39:30;;;;;;;;;;;21.60;32.80;;;;;;8330425;28;19917;-50
2022/04/29 09:43:34;;;;;;;;;;;21.60;32.70;;;;;;8330994;28;19929;-50
2022/04/29 09:47:35;;;;;;;;;;;21.60;32.70;;;;;;8330365;28;20012;-49
2022/04/29 09:51:39;;;;;;;;;;;21.60;32.70;;;;;;8330498;28;19917;-47
2022/04/29 09:55:39;;;;;;;;;;;21.70;32.80;;;;;;8330941;28;19959;-49
2022/04/29 09:59:40;;;;;;;;;;;21.70;33.30;;;;;;8329974;28;19948;-50
2022/04/29 10:03:41;;;;;;;;;;;21.70;32.80;;;;;;8329649;28;19929;-49
2022/04/29 10:07:42;;;;;;;;;;;21.70;32.70;;;;;;8330462;28;20066;-49
2022/04/29 10:11:43;;;;;;;;;;;21.70;32.70;;;;;;8329880;28;19957;-50
2022/04/29 10:15:45;;;;;;;;;;;21.70;32.80;;;;;;8330371;28;19913;-46
2022/04/29 10:24:05;;;;;;;;;;;21.80;32.70;;;;;;8329641;28;20053;-51
2022/04/29 10:28:07;;;;;;;;;;;21.80;32.70;;;;;;8330202;28;19917;-46
2022/04/29 10:32:08;;;;;;;;;;;21.80;32.70;;;;;;8329995;28;19921;-50
2022/04/29 10:36:10;;;;;;;;;;;21.80;32.70;;;;;;8329694;28;19969;-47
2022/04/29 10:40:11;;;;;;;;;;;21.80;32.60;;;;;;8333886;28;19917;-48
2022/04/29 10:44:12;;;;;;;;;;;21.80;32.60;;;;;;8336360;28;19920;-48
2022/04/29 10:48:30;;;;;;;;;;;21.80;32.70;;;;;;8335756;28;19917;-48
2022/04/29 10:52:31;;;;;;;;;;;21.90;32.70;;;;;;8336038;28;20352;-51
2022/04/29 10:56:31;;;;;;;;;;;21.80;32.60;;;;;;8336306;28;19913;-50
2022/04/29 11:00:33;;;;;;;;;;;21.90;32.60;;;;;;8335132;28;19967;-48
2022/04/29 11:04:34;;;;;;;;;;;22.00;32.70;;;;;;8336093;28;19921;-46
2022/04/29 11:08:35;;;;;;;;;;;22.00;32.70;;;;;;8335205;28;19917;-46
2022/04/29 11:12:37;;;;;;;;;;;22.00;32.70;;;;;;8335492;28;20019;-47
2022/04/29 11:16:49;;;;;;;;;;;21.90;32.60;;;;;;8335743;28;19913;-47
2022/04/29 11:20:55;;;;;;;;;;;22.00;32.60;;;;;;8334970;28;20019;-48
2022/04/29 11:24:56;;;;;;;;;;;22.00;32.60;;;;;;8361241;28;19967;-49
2022/04/29 11:28:57;;;;;;;;;;;22.00;32.60;;;;;;8368004;28;20339;-47
2022/04/29 11:32:58;;;;;;;;;;;22.10;32.60;;;;;;8367527;28;20008;-47
2022/04/29 11:36:59;;;;;;;;;;;22.00;32.60;;;;;;8367606;28;19917;-49
2022/04/29 11:41:00;;;;;;;;;;;22.00;32.60;;;;;;8367695;28;19925;-49
2022/04/29 11:45:05;;;;;;;;;;;22.10;32.60;;;;;;8366988;28;19917;-49
2022/04/29 11:49:05;;;;;;;;;;;22.10;32.50;;;;;;8367324;28;19920;-46
2022/04/29 11:53:07;;;;;;;;;;;22.10;32.60;;;;;;8366470;28;20370;-46
2022/04/29 11:57:14;;;;;;;;;;;22.10;32.60;;;;;;8366665;28;20288;-48
2022/04/29 12:01:17;;;;;;;;;;;22.10;32.50;;;;;;8367216;28;19929;-47
2022/04/29 12:05:21;;;;;;;;;;;22.20;32.60;;;;;;8367324;28;19921;-46
2022/04/29 12:09:29;;;;;;;;;;;22.20;32.50;;;;;;8366187;28;19917;-50
2022/04/29 12:13:30;;;;;;;;;;;22.20;32.50;;;;;;8366680;28;20281;-49
2022/04/29 12:17:34;;;;;;;;;;;22.20;32.50;;;;;;8366596;28;19917;-47
2022/04/29 12:21:34;;;;;;;;;;;22.20;32.50;;;;;;8366136;28;19921;-46
2022/04/29 12:25:38;;;;;;;;;;;22.30;32.50;;;;;;8366380;28;19925;-49
2022/04/29 12:29:39;;;;;;;;;;;22.30;32.50;;;;;;8365810;28;19917;-48
2022/04/29 12:38:05;;;;;;;;;;;22.30;32.50;;;;;;8333101;28;20301;-47
2022/04/29 12:42:06;;;;;;;;;;;22.30;32.40;;;;;;8332280;28;19960;-46
2022/04/29 12:46:17;;;;;;;;;;;22.30;32.40;;;;;;8332587;28;20023;-47
2022/04/29 12:50:23;;;;;;;;;;;22.30;32.40;;;;;;8332705;28;19967;-46
2022/04/29 12:54:25;;;;;;;;;;;22.30;32.40;;;;;;8331839;28;19921;-47
2022/04/29 12:58:26;;;;;;;;;;;22.40;32.40;;;;;;8332325;28;20076;-46
2022/04/29 13:02:27;;;;;;;;;;;22.40;32.50;;;;;;8330895;28;19956;-46
2022/04/29 13:06:28;;;;;;;;;;;22.40;32.40;;;;;;8334445;28;19983;-47
2022/04/29 13:10:29;;;;;;;;;;;22.40;32.40;;;;;;8338566;28;19925;-48
2022/04/29 13:14:29;;;;;;;;;;;22.40;32.40;;;;;;8349305;28;19919;-47
2022/04/29 13:18:30;;;;;;;;;;;22.40;32.30;;;;;;8352106;28;19917;-47
2022/04/29 13:22:30;;;;;;;;;;;22.40;32.30;;;;;;8358418;28;20297;-46
2022/04/29 13:26:32;;;;;;;;;;;22.40;32.30;;;;;;8347033;28;19964;-46
2022/04/29 13:30:32;;;;;;;;;;;22.40;32.40;;;;;;8357343;28;19923;-48
2022/04/29 13:34:33;;;;;;;;;;;22.40;32.40;;;;;;8342164;28;19917;-46
2022/04/29 13:38:34;;;;;;;;;;;22.40;32.40;;;;;;8330562;28;19924;-46
2022/04/29 13:42:36;;;;;;;;;;;22.40;32.40;;;;;;8330692;28;20404;-47
2022/04/29 13:46:36;;;;;;;;;;;22.40;32.30;;;;;;8354759;28;19916;-47
2022/04/29 13:50:37;;;;;;;;;;;22.40;32.40;;;;;;8352115;28;20007;-46
2022/04/29 13:54:37;;;;;;;;;;;22.40;32.30;;;;;;8343478;28;19917;-46
2022/04/29 13:58:38;;;;;;;;;;;22.50;32.30;;;;;;8330661;28;19940;-47
2022/04/29 14:02:39;;;;;;;;;;;22.50;32.40;;;;;;8327727;28;19940;-48
2022/04/29 14:06:39;;;;;;;;;;;22.50;32.40;;;;;;8329122;28;19927;-46
2022/04/29 14:10:41;;;;;;;;;;;22.50;32.30;;;;;;8329058;28;19917;-46
2022/04/29 14:14:43;;;;;;;;;;;22.50;32.30;;;;;;8344195;28;19940;-51
2022/04/29 14:18:43;;;;;;;;;;;22.50;32.30;;;;;;8342931;28;19924;-46
2022/04/29 14:22:48;;;;;;;;;;;22.50;32.30;;;;;;8329550;28;20432;-51
2022/04/29 14:26:48;;;;;;;;;;;22.50;32.30;;;;;;8343404;28;19917;-47
2022/04/29 14:30:48;;;;;;;;;;;22.50;32.30;;;;;;8336670;28;19917;-50
2022/04/29 14:34:49;;;;;;;;;;;22.50;32.20;;;;;;8337881;28;19917;-50
2022/04/29 14:38:49;;;;;;;;;;;22.50;32.20;;;;;;8327409;28;19918;-47
2022/04/29 14:42:52;;;;;;;;;;;22.50;32.20;;;;;;8331635;28;19925;-50
2022/04/29 14:46:53;;;;;;;;;;;22.50;32.30;;;;;;8329624;28;19917;-46
2022/04/29 14:50:54;;;;;;;;;;;22.50;32.20;;;;;;8329092;28;19926;-50
2022/04/29 14:54:54;;;;;;;;;;;22.50;32.20;;;;;;8353218;28;19923;-50
2022/04/29 14:58:55;;;;;;;;;;;22.50;32.30;;;;;;8362330;28;20383;-46
2022/04/29 15:02:56;;;;;;;;;;;22.50;32.30;;;;;;8355268;28;19971;-47
2022/04/29 15:06:56;;;;;;;;;;;22.50;32.30;;;;;;8343937;28;20007;-47
2022/04/29 15:19:35;;;;;;;;;;;22.50;32.30;;;;;;8328928;28;19925;-47
2022/04/29 15:23:35;;;;;;;;;;;22.50;32.30;;;;;;8328689;28;20019;-45
2022/04/29 15:27:36;;;;;;;;;;;22.50;32.30;;;;;;8333470;28;19913;-48
2022/04/29 15:31:36;;;;;;;;;;;22.50;32.30;;;;;;8334827;28;19963;-47
2022/04/29 15:35:37;;;;;;;;;;;22.50;32.30;;;;;;8334227;28;19925;-51
2022/04/29 15:39:37;;;;;;;;;;;22.50;32.30;;;;;;8334695;28;20380;-47
2022/04/29 15:43:38;;;;;;;;;;;22.50;32.30;;;;;;8334452;28;19921;-46
2022/04/29 15:47:38;;;;;;;;;;;22.50;32.30;;;;;;8334316;28;19913;-46
2022/04/29 15:51:39;;;;;;;;;;;22.50;32.20;;;;;;8334204;28;19917;-46
2022/04/29 15:55:41;;;;;;;;;;;22.50;32.20;;;;;;8334210;28;19917;-45
2022/04/29 15:59:42;;;;;;;;;;;22.50;32.20;;;;;;8334109;28;19925;-48
2022/04/29 16:03:42;;;;;;;;;;;22.50;32.10;;;;;;8333912;28;19925;-46
2022/04/29 16:07:43;;;;;;;;;;;22.50;32.10;;;;;;8334097;28;19924;-46
2022/04/29 16:11:43;;;;;;;;;;;22.50;32.00;;;;;;8332625;28;19920;-45
2022/04/29 16:15:44;;;;;;;;;;;22.50;32.10;;;;;;8333857;28;19953;-46
2022/04/29 16:28:23;;;;;;;;;;;22.50;32.00;;;;;;8336763;28;20292;-47
2022/04/29 16:32:23;;;;;;;;;;;22.50;32.00;;;;;;8333073;28;20012;-47
2022/04/29 16:36:24;;;;;;;;;;;22.50;32.00;;;;;;8332088;28;20279;-47
2022/04/29 16:40:25;;;;;;;;;;;22.50;32.10;;;;;;8332813;28;19913;-47
2022/04/29 16:44:28;;;;;;;;;;;22.50;32.10;;;;;;8332685;28;19927;-50
2022/04/29 16:48:28;;;;;;;;;;;22.50;32.00;;;;;;8332272;28;19940;-46
2022/04/29 16:52:29;;;;;;;;;;;22.50;32.10;;;;;;8332401;28;19917;-47
2022/04/29 16:58:42;;;;;;;;;;;22.50;32.20;;;;;;8332209;28;20004;-48
2022/04/29 17:00:51;;;;;;;;;;;22.40;32.10;;;;;;8331559;28;19947;-45
2022/04/29 17:04:51;;;;;;;;;;;22.50;32.10;;;;;;8332669;28;20019;-47
2022/04/29 17:08:54;;;;;;;;;;;22.50;32.10;;;;;;8330915;28;20213;-45
2022/04/29 17:12:54;;;;;;;;;;;22.50;32.10;;;;;;8331840;28;19917;-46
2022/04/29 17:16:55;;;;;;;;;;;22.40;32.10;;;;;;8331751;28;20401;-46
2022/04/29 17:20:55;;;;;;;;;;;22.40;32.10;;;;;;8331383;28;19925;-48
2022/04/29 17:24:56;;;;;;;;;;;22.40;32.70;;;;;;8331414;28;20004;-45
2022/04/29 17:28:56;;;;;;;;;;;22.40;32.10;;;;;;8331427;28;19917;-46
2022/04/29 17:32:57;;;;;;;;;;;22.40;32.10;;;;;;8330691;28;20106;-45
2022/04/29 17:36:57;;;;;;;;;;;22.40;32.20;;;;;;8331345;28;19991;-47
2022/04/29 17:45:17;;;;;;;;;;;22.40;32.10;;;;;;8331325;28;19987;-46
2022/04/29 17:49:17;;;;;;;;;;;22.40;32.20;;;;;;8330235;28;19913;-47
2022/04/29 17:53:18;;;;;;;;;;;22.40;32.20;;;;;;8330815;28;19917;-46
2022/04/29 17:57:18;;;;;;;;;;;22.40;32.20;;;;;;8329985;28;19917;-46
2022/04/29 18:01:19;;;;;;;;;;;22.40;32.20;;;;;;8330447;28;19941;-46
2022/04/29 18:05:22;;;;;;;;;;;22.40;32.20;;;;;;8330179;28;19928;-47
2022/04/29 18:09:25;;;;;;;;;;;22.40;32.30;;;;;;8331906;28;19921;-46
2022/04/29 18:13:25;;;;;;;;;;;22.40;32.80;;;;;;8363457;28;20333;-46
2022/04/29 18:17:26;;;;;;;;;;;22.40;32.30;;;;;;8363160;28;19967;-47
2022/04/29 18:21:27;;;;;;;;;;;22.40;32.30;;;;;;8362384;28;19970;-46
2022/04/29 18:25:28;;;;;;;;;;;22.30;32.30;;;;;;8363337;28;19944;-46
2022/04/29 18:29:28;;;;;;;;;;;22.30;32.40;;;;;;8363266;28;20362;-46
2022/04/29 18:33:29;;;;;;;;;;;22.30;32.30;;;;;;8362377;28;19926;-45
2022/04/29 18:37:29;;;;;;;;;;;22.30;32.30;;;;;;8362961;28;19917;-46
2022/04/29 18:41:30;;;;;;;;;;;22.30;32.90;;;;;;8362680;28;19940;-45
2022/04/29 18:45:30;;;;;;;;;;;22.30;32.40;;;;;;8362215;28;19917;-47
2022/04/29 18:49:31;;;;;;;;;;;22.30;32.40;;;;;;8362814;28;19916;-46
2022/04/29 18:53:31;;;;;;;;;;;22.30;32.40;;;;;;8362446;28;19917;-47
2022/04/29 18:57:32;;;;;;;;;;;22.30;32.40;;;;;;8361939;28;19923;-46
2022/04/29 19:01:32;;;;;;;;;;;22.30;32.40;;;;;;8347618;28;20007;-46
2022/04/29 19:05:33;;;;;;;;;;;22.30;32.50;;;;;;8369319;28;19928;-46
2022/04/29 19:09:34;;;;;;;;;;;22.30;32.50;;;;;;8368495;28;19913;-46
2022/04/29 19:13:34;;;;;;;;;;;22.30;32.50;;;;;;8350568;28;19970;-45
2022/04/29 19:17:35;;;;;;;;;;;22.30;32.50;;;;;;8367972;28;19917;-47
2022/04/29 19:21:36;;;;;;;;;;;22.30;32.50;;;;;;8368044;28;19928;-50
2022/04/29 19:25:37;;;;;;;;;;;22.30;32.60;;;;;;8368185;28;19920;-48
2022/04/29 19:29:38;;;;;;;;;;;22.20;32.60;;;;;;8367784;28;19913;-49
2022/04/29 19:33:42;;;;;;;;;;;22.20;32.50;;;;;;8367864;28;20333;-45
2022/04/29 19:37:43;;;;;;;;;;;22.20;32.60;;;;;;8367746;28;20300;-44
2022/04/29 19:41:43;;;;;;;;;;;22.20;32.60;;;;;;8367156;28;19932;-45
2022/04/29 19:45:44;;;;;;;;;;;22.20;32.60;;;;;;8356459;28;19971;-45
2022/04/29 19:49:44;;;;;;;;;;;22.20;32.60;;;;;;8335019;28;19914;-46
2022/04/29 19:53:47;;;;;;;;;;;22.20;32.60;;;;;;8333952;28;19924;-45
2022/04/29 20:06:26;;;;;;;;;;;22.20;32.70;;;;;;8334090;28;20027;-47
2022/04/29 20:10:26;;;;;;;;;;;22.20;32.70;;;;;;8333730;28;19917;-45
2022/04/29 20:14:27;;;;;;;;;;;22.20;33.30;;;;;;8333377;28;19918;-45
2022/04/29 20:18:27;;;;;;;;;;;22.20;32.80;;;;;;8333038;28;20362;-46
2022/04/29 20:22:29;;;;;;;;;;;22.20;32.80;;;;;;8333491;28;19926;-47
2022/04/29 20:26:29;;;;;;;;;;;22.20;32.80;;;;;;8333513;28;19921;-45
2022/04/29 20:30:30;;;;;;;;;;;22.20;32.80;;;;;;8332946;28;20000;-46
2022/04/29 20:34:30;;;;;;;;;;;22.20;32.80;;;;;;8333465;28;19917;-44
2022/04/29 20:38:31;;;;;;;;;;;22.10;32.80;;;;;;8334274;28;19940;-45
2022/04/29 20:46:51;;;;;;;;;;;22.10;32.80;;;;;;8336129;28;20278;-47
2022/04/29 20:50:52;;;;;;;;;;;22.10;32.80;;;;;;8334793;28;19921;-45
2022/04/29 20:54:52;;;;;;;;;;;22.10;32.80;;;;;;8335678;28;19917;-44
2022/04/29 20:58:53;;;;;;;;;;;22.10;32.80;;;;;;8334166;28;19987;-45
2022/04/29 21:02:54;;;;;;;;;;;22.10;32.80;;;;;;8333524;28;19933;-46
2022/04/29 21:06:54;;;;;;;;;;;22.10;32.80;;;;;;8333445;28;19917;-45
2022/04/29 21:10:55;;;;;;;;;;;22.10;32.80;;;;;;8332026;28;19913;-48
2022/04/29 21:14:57;;;;;;;;;;;22.10;32.80;;;;;;8331626;28;19917;-46
2022/04/29 21:18:57;;;;;;;;;;;22.10;32.80;;;;;;8331501;28;19924;-46
2022/04/29 21:22:57;;;;;;;;;;;22.10;32.80;;;;;;8331505;28;20291;-45
2022/04/29 21:26:58;;;;;;;;;;;22.10;32.80;;;;;;8331026;28;19924;-45
2022/04/29 21:31:00;;;;;;;;;;;22.10;32.80;;;;;;8331489;28;20263;-46
2022/04/29 21:35:00;;;;;;;;;;;22.10;32.80;;;;;;8331474;28;20000;-46
2022/04/29 21:39:01;;;;;;;;;;;22.10;32.90;;;;;;8330606;28;19940;-46
2022/04/29 21:43:01;;;;;;;;;;;22.10;32.90;;;;;;8330800;28;19978;-46
2022/04/29 21:47:02;;;;;;;;;;;22.10;32.90;;;;;;8330781;28;19943;-45
2022/04/29 21:51:02;;;;;;;;;;;22.10;32.90;;;;;;8330078;28;19967;-47
2022/04/29 21:55:03;;;;;;;;;;;22.00;32.90;;;;;;8330861;28;19936;-44
2022/04/29 21:59:04;;;;;;;;;;;22.10;33.00;;;;;;8330484;28;19917;-46
2022/04/29 22:03:04;;;;;;;;;;;22.00;32.90;;;;;;8353944;28;19925;-47
2022/04/29 22:07:05;;;;;;;;;;;22.10;33.00;;;;;;8363292;28;20011;-45
2022/04/29 22:11:06;;;;;;;;;;;22.00;33.00;;;;;;8336878;28;19917;-45
2022/04/29 22:15:07;;;;;;;;;;;22.00;33.00;;;;;;8329812;28;19925;-46
2022/04/29 22:19:07;;;;;;;;;;;22.00;33.00;;;;;;8330258;28;19917;-45
2022/04/29 22:23:08;;;;;;;;;;;22.00;33.00;;;;;;8329799;28;20008;-44
2022/04/29 22:27:08;;;;;;;;;;;22.00;33.00;;;;;;8329515;28;19917;-45
2022/04/29 22:31:08;;;;;;;;;;;22.00;33.00;;;;;;8330081;28;20366;-45
2022/04/29 22:35:09;;;;;;;;;;;22.00;33.00;;;;;;8332337;28;20399;-46
2022/04/29 22:39:11;;;;;;;;;;;22.00;33.00;;;;;;8336090;28;20374;-44
2022/04/29 22:43:12;;;;;;;;;;;22.00;33.10;;;;;;8336646;28;19929;-45
2022/04/29 22:47:12;;;;;;;;;;;22.00;33.10;;;;;;8336508;28;19924;-45
2022/04/29 22:51:13;;;;;;;;;;;22.00;33.10;;;;;;8336110;28;19914;-45
2022/04/29 22:55:14;;;;;;;;;;;21.90;33.10;;;;;;8336431;28;20007;-47
2022/04/29 22:59:15;;;;;;;;;;;21.90;33.10;;;;;;8336126;28;19924;-44
2022/04/29 23:03:15;;;;;;;;;;;21.90;33.10;;;;;;8335316;28;19931;-45
2022/04/29 23:07:16;;;;;;;;;;;21.90;33.10;;;;;;8335749;28;19986;-45
2022/04/29 23:11:16;;;;;;;;;;;21.90;33.10;;;;;;8336044;28;20358;-44
2022/04/29 23:15:18;;;;;;;;;;;21.90;33.10;;;;;;8335244;28;19964;-45
2022/04/29 23:19:21;;;;;;;;;;;21.90;33.10;;;;;;8335673;28;20328;-45
2022/04/29 23:23:22;;;;;;;;;;;21.90;33.10;;;;;;8335229;28;20008;-44
2022/04/29 23:27:27;;;;;;;;;;;21.90;33.10;;;;;;8334613;28;19917;-44
2022/04/29 23:31:28;;;;;;;;;;;21.80;33.20;;;;;;8335483;28;19913;-45
2022/04/29 23:35:28;;;;;;;;;;;21.80;33.30;;;;;;8335042;28;19921;-45
2022/04/29 23:39:29;;;;;;;;;;;21.80;33.20;;;;;;8334307;28;19917;-44
2022/04/29 23:43:30;;;;;;;;;;;21.80;33.30;;;;;;8334755;28;19979;-45
2022/04/29 23:47:30;;;;;;;;;;;21.80;33.40;;;;;;8333384;28;20000;-45
2022/04/29 23:51:30;;;;;;;;;;;21.80;33.40;;;;;;8334008;28;19975;-45
2022/04/29 23:55:31;;;;;;;;;;;21.80;33.50;;;;;;8333778;28;19917;-44
2022/04/29 23:59:32;;;;;;;;;;;21.80;33.50;;;;;;8334228;28;19917;-44
